sensor_id;sensor_type;location;lat;lon;timestamp;temperature;humidity
57753;DHT22;43583;53.132;6.574;2022-12-10T00:01:44;-1.70;99.90
57753;DHT22;43583;53.132;6.574;2022-12-10T00:04:12;-1.70;99.90
57753;DHT22;43583;53.132;6.574;2022-12-10T00:06:38;-1.70;99.90
57753;DHT22;43583;53.132;6.574;2022-12-10T00:09:07;-1.70;99.90
57753;DHT22;43583;53.132;6.574;2022-12-10T00:11:34;-1.70;99.90
57753;DHT22;43583;53.132;6.574;2022-12-10T00:14:00;-1.70;99.90
57753;DHT22;43583;53.132;6.574;2022-12-10T00:16:27;-1.70;99.90
57753;DHT22;43583;53.132;6.574;2022-12-10T00:18:53;-1.80;99.90
57753;DHT22;43583;53.132;6.574;2022-12-10T00:21:25;-1.80;99.90
57753;DHT22;43583;53.132;6.574;2022-12-10T00:23:51;-1.70;99.90
57753;DHT22;43583;53.132;6.574;2022-12-10T00:26:25;-1.80;99.90
57753;DHT22;43583;53.132;6.574;2022-12-10T00:28:51;-1.80;99.90
57753;DHT22;43583;53.132;6.574;2022-12-10T00:31:26;-1.90;99.90
57753;DHT22;43583;53.132;6.574;2022-12-10T00:33:53;-1.90;99.90
57753;DHT22;43583;53.132;6.574;2022-12-10T00:36:22;-1.90;99.90
57753;DHT22;43583;53.132;6.574;2022-12-10T00:38:48;-2.00;99.90
57753;DHT22;43583;53.132;6.574;2022-12-10T00:41:14;-2.00;99.90
57753;DHT22;43583;53.132;6.574;2022-12-10T00:43:43;-2.00;99.90
57753;DHT22;43583;53.132;6.574;2022-12-10T00:46:10;-2.00;99.90
57753;DHT22;43583;53.132;6.574;2022-12-10T00:48:36;-2.00;99.90
57753;DHT22;43583;53.132;6.574;2022-12-10T00:51:14;-2.00;99.90
57753;DHT22;43583;53.132;6.574;2022-12-10T00:53:41;-2.00;99.90
57753;DHT22;43583;53.132;6.574;2022-12-10T00:56:08;-2.00;99.90
57753;DHT22;43583;53.132;6.574;2022-12-10T00:58:36;-2.10;99.90
57753;DHT22;43583;53.132;6.574;2022-12-10T01:01:22;-2.10;99.90
57753;DHT22;43583;53.132;6.574;2022-12-10T01:03:49;-2.10;99.90
57753;DHT22;43583;53.132;6.574;2022-12-10T01:06:25;-2.10;99.90
57753;DHT22;43583;53.132;6.574;2022-12-10T01:08:52;-2.10;99.90
57753;DHT22;43583;53.132;6.574;2022-12-10T01:11:19;-2.00;99.90
57753;DHT22;43583;53.132;6.574;2022-12-10T01:13:47;-2.10;99.90
57753;DHT22;43583;53.132;6.574;2022-12-10T01:16:15;-2.10;99.90
57753;DHT22;43583;53.132;6.574;2022-12-10T01:18:42;-2.10;99.90
57753;DHT22;43583;53.132;6.574;2022-12-10T01:21:10;-2.10;99.90
57753;DHT22;43583;53.132;6.574;2022-12-10T01:23:38;-2.10;99.90
57753;DHT22;43583;53.132;6.574;2022-12-10T01:26:05;-2.10;99.90
57753;DHT22;43583;53.132;6.574;2022-12-10T01:28:33;-2.10;99.90
57753;DHT22;43583;53.132;6.574;2022-12-10T01:31:10;-2.20;99.90
57753;DHT22;43583;53.132;6.574;2022-12-10T01:33:37;-2.30;99.90
57753;DHT22;43583;53.132;6.574;2022-12-10T01:36:13;-2.30;99.90
57753;DHT22;43583;53.132;6.574;2022-12-10T01:38:40;-2.40;99.90
57753;DHT22;43583;53.132;6.574;2022-12-10T01:41:07;-2.40;99.90
57753;DHT22;43583;53.132;6.574;2022-12-10T01:44:01;-2.50;99.90
57753;DHT22;43583;53.132;6.574;2022-12-10T01:46:33;-2.50;99.90
57753;DHT22;43583;53.132;6.574;2022-12-10T01:49:00;-2.50;99.90
57753;DHT22;43583;53.132;6.574;2022-12-10T01:51:29;-2.60;99.90
57753;DHT22;43583;53.132;6.574;2022-12-10T01:53:58;-2.60;99.90
57753;DHT22;43583;53.132;6.574;2022-12-10T01:56:25;-2.60;99.90
57753;DHT22;43583;53.132;6.574;2022-12-10T01:58:52;-2.50;99.90
57753;DHT22;43583;53.132;6.574;2022-12-10T02:04:45;-2.50;99.90
57753;DHT22;43583;53.132;6.574;2022-12-10T02:06:54;-2.50;99.90
57753;DHT22;43583;53.132;6.574;2022-12-10T02:12:12;-2.50;99.90
57753;DHT22;43583;53.132;6.574;2022-12-10T02:14:57;-2.50;99.90
57753;DHT22;43583;53.132;6.574;2022-12-10T02:17:50;-2.60;99.90
57753;DHT22;43583;53.132;6.574;2022-12-10T02:20:24;-2.60;99.90
57753;DHT22;43583;53.132;6.574;2022-12-10T02:23:09;-2.60;99.90
57753;DHT22;43583;53.132;6.574;2022-12-10T02:26:06;-2.60;99.90
57753;DHT22;43583;53.132;6.574;2022-12-10T02:29:01;-2.60;99.90
57753;DHT22;43583;53.132;6.574;2022-12-10T02:31:29;-2.50;99.90
57753;DHT22;43583;53.132;6.574;2022-12-10T02:33:58;-2.50;99.90
57753;DHT22;43583;53.132;6.574;2022-12-10T02:36:29;-2.50;99.90
57753;DHT22;43583;53.132;6.574;2022-12-10T02:38:56;-2.50;99.90
57753;DHT22;43583;53.132;6.574;2022-12-10T02:41:32;-2.60;99.90
57753;DHT22;43583;53.132;6.574;2022-12-10T02:44:00;-2.70;99.90
57753;DHT22;43583;53.132;6.574;2022-12-10T02:46:28;-2.70;99.90
57753;DHT22;43583;53.132;6.574;2022-12-10T02:48:55;-2.80;99.90
57753;DHT22;43583;53.132;6.574;2022-12-10T02:51:22;-2.90;99.90
57753;DHT22;43583;53.132;6.574;2022-12-10T02:53:47;-2.90;99.90
57753;DHT22;43583;53.132;6.574;2022-12-10T02:56:25;-3.00;99.90
57753;DHT22;43583;53.132;6.574;2022-12-10T02:59:31;-3.00;99.90
57753;DHT22;43583;53.132;6.574;2022-12-10T03:02:06;-3.00;99.90
57753;DHT22;43583;53.132;6.574;2022-12-10T03:07:20;-2.90;99.90
57753;DHT22;43583;53.132;6.574;2022-12-10T03:09:55;-2.80;99.90
57753;DHT22;43583;53.132;6.574;2022-12-10T03:12:36;-2.70;99.90
57753;DHT22;43583;53.132;6.574;2022-12-10T03:15:06;-2.60;99.90
57753;DHT22;43583;53.132;6.574;2022-12-10T03:17:37;-2.60;99.90
57753;DHT22;43583;53.132;6.574;2022-12-10T03:20:05;-2.50;99.90
57753;DHT22;43583;53.132;6.574;2022-12-10T03:22:33;-2.50;99.90
57753;DHT22;43583;53.132;6.574;2022-12-10T03:25:00;-2.50;99.90
57753;DHT22;43583;53.132;6.574;2022-12-10T03:27:29;-2.50;99.90
57753;DHT22;43583;53.132;6.574;2022-12-10T03:29:56;-2.50;99.90
57753;DHT22;43583;53.132;6.574;2022-12-10T03:32:25;-2.50;99.90
57753;DHT22;43583;53.132;6.574;2022-12-10T03:34:54;-2.40;99.90
57753;DHT22;43583;53.132;6.574;2022-12-10T03:37:22;-2.40;99.90
57753;DHT22;43583;53.132;6.574;2022-12-10T03:39:48;-2.40;99.90
57753;DHT22;43583;53.132;6.574;2022-12-10T03:42:14;-2.50;99.90
57753;DHT22;43583;53.132;6.574;2022-12-10T03:44:39;-2.40;99.90
57753;DHT22;43583;53.132;6.574;2022-12-10T03:47:11;-2.50;99.90
57753;DHT22;43583;53.132;6.574;2022-12-10T03:49:37;-2.50;99.90
57753;DHT22;43583;53.132;6.574;2022-12-10T03:52:06;-2.50;99.90
57753;DHT22;43583;53.132;6.574;2022-12-10T03:54:31;-2.50;99.90
57753;DHT22;43583;53.132;6.574;2022-12-10T03:56:57;-2.50;99.90
57753;DHT22;43583;53.132;6.574;2022-12-10T03:59:23;-2.60;99.90
57753;DHT22;43583;53.132;6.574;2022-12-10T04:01:48;-2.60;99.90
57753;DHT22;43583;53.132;6.574;2022-12-10T04:04:14;-2.60;99.90
57753;DHT22;43583;53.132;6.574;2022-12-10T04:06:41;-2.70;99.90
57753;DHT22;43583;53.132;6.574;2022-12-10T04:09:09;-2.80;99.90
57753;DHT22;43583;53.132;6.574;2022-12-10T04:11:35;-2.90;99.90
57753;DHT22;43583;53.132;6.574;2022-12-10T04:14:00;-3.00;99.90
57753;DHT22;43583;53.132;6.574;2022-12-10T04:16:44;-3.10;99.90
57753;DHT22;43583;53.132;6.574;2022-12-10T04:19:14;-3.10;99.90
57753;DHT22;43583;53.132;6.574;2022-12-10T04:21:41;-3.20;99.90
57753;DHT22;43583;53.132;6.574;2022-12-10T04:24:28;-3.20;99.90
57753;DHT22;43583;53.132;6.574;2022-12-10T04:27:23;-3.30;99.90
57753;DHT22;43583;53.132;6.574;2022-12-10T04:29:49;-3.30;99.90
57753;DHT22;43583;53.132;6.574;2022-12-10T04:32:15;-3.30;99.90
57753;DHT22;43583;53.132;6.574;2022-12-10T04:34:41;-3.30;99.90
57753;DHT22;43583;53.132;6.574;2022-12-10T04:37:07;-3.30;99.90
57753;DHT22;43583;53.132;6.574;2022-12-10T04:39:33;-3.30;99.90
57753;DHT22;43583;53.132;6.574;2022-12-10T04:42:00;-3.40;99.90
57753;DHT22;43583;53.132;6.574;2022-12-10T04:44:26;-3.40;99.90
57753;DHT22;43583;53.132;6.574;2022-12-10T04:46:52;-3.40;99.90
57753;DHT22;43583;53.132;6.574;2022-12-10T04:49:17;-3.40;99.90
57753;DHT22;43583;53.132;6.574;2022-12-10T04:51:43;-3.40;99.90
57753;DHT22;43583;53.132;6.574;2022-12-10T04:54:10;-3.40;99.90
57753;DHT22;43583;53.132;6.574;2022-12-10T04:56:35;-3.50;99.90
57753;DHT22;43583;53.132;6.574;2022-12-10T04:59:02;-3.60;99.90
57753;DHT22;43583;53.132;6.574;2022-12-10T05:01:28;-3.60;99.90
57753;DHT22;43583;53.132;6.574;2022-12-10T05:03:54;-3.70;99.90
57753;DHT22;43583;53.132;6.574;2022-12-10T05:06:23;-3.70;99.90
57753;DHT22;43583;53.132;6.574;2022-12-10T05:08:48;-3.70;99.90
57753;DHT22;43583;53.132;6.574;2022-12-10T05:11:16;-3.80;99.90
57753;DHT22;43583;53.132;6.574;2022-12-10T05:13:42;-3.70;99.90
57753;DHT22;43583;53.132;6.574;2022-12-10T05:16:10;-3.60;99.90
57753;DHT22;43583;53.132;6.574;2022-12-10T05:18:37;-3.50;99.90
57753;DHT22;43583;53.132;6.574;2022-12-10T05:21:05;-3.40;99.90
57753;DHT22;43583;53.132;6.574;2022-12-10T05:23:32;-3.30;99.90
57753;DHT22;43583;53.132;6.574;2022-12-10T05:26:08;-3.20;99.90
57753;DHT22;43583;53.132;6.574;2022-12-10T05:28:37;-3.00;99.90
57753;DHT22;43583;53.132;6.574;2022-12-10T05:31:04;-2.90;99.90
57753;DHT22;43583;53.132;6.574;2022-12-10T05:33:30;-2.80;99.90
57753;DHT22;43583;53.132;6.574;2022-12-10T05:35:59;-2.70;99.90
57753;DHT22;43583;53.132;6.574;2022-12-10T05:38:26;-2.50;99.90
57753;DHT22;43583;53.132;6.574;2022-12-10T05:40:52;-2.50;99.90
57753;DHT22;43583;53.132;6.574;2022-12-10T05:43:18;-2.40;99.90
57753;DHT22;43583;53.132;6.574;2022-12-10T05:45:44;-2.40;99.90
57753;DHT22;43583;53.132;6.574;2022-12-10T05:48:11;-2.30;99.90
57753;DHT22;43583;53.132;6.574;2022-12-10T05:50:37;-2.20;99.90
57753;DHT22;43583;53.132;6.574;2022-12-10T05:53:04;-2.10;99.90
57753;DHT22;43583;53.132;6.574;2022-12-10T05:55:30;-2.10;99.90
57753;DHT22;43583;53.132;6.574;2022-12-10T05:57:59;-2.00;99.90
57753;DHT22;43583;53.132;6.574;2022-12-10T06:00:27;-2.00;99.90
57753;DHT22;43583;53.132;6.574;2022-12-10T06:02:53;-1.90;99.90
57753;DHT22;43583;53.132;6.574;2022-12-10T06:05:19;-1.90;99.90
57753;DHT22;43583;53.132;6.574;2022-12-10T06:07:44;-1.80;99.90
57753;DHT22;43583;53.132;6.574;2022-12-10T06:10:10;-1.80;99.90
57753;DHT22;43583;53.132;6.574;2022-12-10T06:12:37;-1.70;99.90
57753;DHT22;43583;53.132;6.574;2022-12-10T06:15:03;-1.70;99.90
57753;DHT22;43583;53.132;6.574;2022-12-10T06:17:29;-1.70;99.90
57753;DHT22;43583;53.132;6.574;2022-12-10T06:19:55;-1.70;99.90
57753;DHT22;43583;53.132;6.574;2022-12-10T06:22:20;-1.60;99.90
57753;DHT22;43583;53.132;6.574;2022-12-10T06:24:46;-1.60;99.90
57753;DHT22;43583;53.132;6.574;2022-12-10T06:27:11;-1.60;99.90
57753;DHT22;43583;53.132;6.574;2022-12-10T06:29:37;-1.60;99.90
57753;DHT22;43583;53.132;6.574;2022-12-10T06:32:03;-1.60;99.90
57753;DHT22;43583;53.132;6.574;2022-12-10T06:34:29;-1.60;99.90
57753;DHT22;43583;53.132;6.574;2022-12-10T06:36:54;-1.50;99.90
57753;DHT22;43583;53.132;6.574;2022-12-10T06:39:20;-1.50;99.90
57753;DHT22;43583;53.132;6.574;2022-12-10T06:41:46;-1.50;99.90
57753;DHT22;43583;53.132;6.574;2022-12-10T06:44:12;-1.50;99.90
57753;DHT22;43583;53.132;6.574;2022-12-10T06:46:39;-1.50;99.90
57753;DHT22;43583;53.132;6.574;2022-12-10T06:49:06;-1.50;99.90
57753;DHT22;43583;53.132;6.574;2022-12-10T06:51:32;-1.50;99.90
57753;DHT22;43583;53.132;6.574;2022-12-10T06:53:57;-1.50;99.90
57753;DHT22;43583;53.132;6.574;2022-12-10T06:56:23;-1.50;99.90
57753;DHT22;43583;53.132;6.574;2022-12-10T06:58:49;-1.50;99.90
57753;DHT22;43583;53.132;6.574;2022-12-10T07:01:18;-1.50;99.90
57753;DHT22;43583;53.132;6.574;2022-12-10T07:03:54;-1.50;99.90
57753;DHT22;43583;53.132;6.574;2022-12-10T07:06:22;-1.50;99.90
57753;DHT22;43583;53.132;6.574;2022-12-10T07:08:49;-1.40;99.90
57753;DHT22;43583;53.132;6.574;2022-12-10T07:11:19;-1.50;99.90
57753;DHT22;43583;53.132;6.574;2022-12-10T07:13:45;-1.40;99.90
57753;DHT22;43583;53.132;6.574;2022-12-10T07:18:44;-1.50;99.90
57753;DHT22;43583;53.132;6.574;2022-12-10T07:23:45;-1.50;99.90
57753;DHT22;43583;53.132;6.574;2022-12-10T07:26:11;-1.50;99.90
57753;DHT22;43583;53.132;6.574;2022-12-10T07:28:36;-1.40;99.90
57753;DHT22;43583;53.132;6.574;2022-12-10T07:31:03;-1.40;99.90
57753;DHT22;43583;53.132;6.574;2022-12-10T07:33:29;-1.40;99.90
57753;DHT22;43583;53.132;6.574;2022-12-10T07:35:55;-1.50;99.90
57753;DHT22;43583;53.132;6.574;2022-12-10T07:38:24;-1.50;99.90
57753;DHT22;43583;53.132;6.574;2022-12-10T07:40:50;-1.50;99.90
57753;DHT22;43583;53.132;6.574;2022-12-10T07:43:17;-1.50;99.90
57753;DHT22;43583;53.132;6.574;2022-12-10T07:45:43;-1.50;99.90
57753;DHT22;43583;53.132;6.574;2022-12-10T07:48:09;-1.50;99.90
57753;DHT22;43583;53.132;6.574;2022-12-10T07:50:34;-1.50;99.90
57753;DHT22;43583;53.132;6.574;2022-12-10T07:53:00;-1.60;99.90
57753;DHT22;43583;53.132;6.574;2022-12-10T07:55:25;-1.50;99.90
57753;DHT22;43583;53.132;6.574;2022-12-10T07:57:51;-1.50;99.90
57753;DHT22;43583;53.132;6.574;2022-12-10T08:00:16;-1.50;99.90
57753;DHT22;43583;53.132;6.574;2022-12-10T08:02:42;-1.50;99.90
57753;DHT22;43583;53.132;6.574;2022-12-10T08:05:08;-1.40;99.90
57753;DHT22;43583;53.132;6.574;2022-12-10T08:07:34;-1.40;99.90
57753;DHT22;43583;53.132;6.574;2022-12-10T08:10:00;-1.40;99.90
57753;DHT22;43583;53.132;6.574;2022-12-10T08:12:25;-1.40;99.90
57753;DHT22;43583;53.132;6.574;2022-12-10T08:14:51;-1.40;99.90
57753;DHT22;43583;53.132;6.574;2022-12-10T08:17:16;-1.40;99.90
57753;DHT22;43583;53.132;6.574;2022-12-10T08:19:42;-1.40;99.90
57753;DHT22;43583;53.132;6.574;2022-12-10T08:22:07;-1.30;99.90
57753;DHT22;43583;53.132;6.574;2022-12-10T08:24:33;-1.30;99.90
57753;DHT22;43583;53.132;6.574;2022-12-10T08:26:59;-1.40;99.90
57753;DHT22;43583;53.132;6.574;2022-12-10T08:29:24;-1.40;99.90
57753;DHT22;43583;53.132;6.574;2022-12-10T08:31:50;-1.30;99.90
57753;DHT22;43583;53.132;6.574;2022-12-10T08:34:17;-1.30;99.90
57753;DHT22;43583;53.132;6.574;2022-12-10T08:36:43;-1.30;99.90
57753;DHT22;43583;53.132;6.574;2022-12-10T08:39:09;-1.30;99.90
57753;DHT22;43583;53.132;6.574;2022-12-10T08:41:36;-1.20;99.90
57753;DHT22;43583;53.132;6.574;2022-12-10T08:44:02;-1.20;99.90
57753;DHT22;43583;53.132;6.574;2022-12-10T08:46:27;-1.20;99.90
57753;DHT22;43583;53.132;6.574;2022-12-10T08:48:54;-1.20;99.90
57753;DHT22;43583;53.132;6.574;2022-12-10T08:51:20;-1.20;99.90
57753;DHT22;43583;53.132;6.574;2022-12-10T08:53:46;-1.20;99.90
57753;DHT22;43583;53.132;6.574;2022-12-10T08:56:12;-1.20;99.90
57753;DHT22;43583;53.132;6.574;2022-12-10T08:58:38;-1.20;99.90
57753;DHT22;43583;53.132;6.574;2022-12-10T09:01:09;-1.10;99.90
57753;DHT22;43583;53.132;6.574;2022-12-10T09:03:35;-1.10;99.90
57753;DHT22;43583;53.132;6.574;2022-12-10T09:06:07;-1.00;99.90
57753;DHT22;43583;53.132;6.574;2022-12-10T09:08:33;-1.00;99.90
57753;DHT22;43583;53.132;6.574;2022-12-10T09:11:08;-1.00;99.90
57753;DHT22;43583;53.132;6.574;2022-12-10T09:13:34;-0.90;99.90
57753;DHT22;43583;53.132;6.574;2022-12-10T09:15:59;-1.00;99.90
57753;DHT22;43583;53.132;6.574;2022-12-10T09:18:25;-1.00;99.90
57753;DHT22;43583;53.132;6.574;2022-12-10T09:20:51;-1.00;99.90
57753;DHT22;43583;53.132;6.574;2022-12-10T09:23:16;-1.00;99.90
57753;DHT22;43583;53.132;6.574;2022-12-10T09:25:42;-1.00;99.90
57753;DHT22;43583;53.132;6.574;2022-12-10T09:28:07;-1.00;99.90
57753;DHT22;43583;53.132;6.574;2022-12-10T09:30:33;-1.00;99.90
57753;DHT22;43583;53.132;6.574;2022-12-10T09:32:59;-1.00;99.90
57753;DHT22;43583;53.132;6.574;2022-12-10T09:35:24;-0.90;99.90
57753;DHT22;43583;53.132;6.574;2022-12-10T09:37:50;-0.90;99.90
57753;DHT22;43583;53.132;6.574;2022-12-10T09:40:38;-0.80;99.90
57753;DHT22;43583;53.132;6.574;2022-12-10T09:43:26;-0.80;99.90
57753;DHT22;43583;53.132;6.574;2022-12-10T09:46:15;-0.80;99.90
57753;DHT22;43583;53.132;6.574;2022-12-10T09:51:32;-0.80;99.90
57753;DHT22;43583;53.132;6.574;2022-12-10T09:53:59;-0.80;99.90
57753;DHT22;43583;53.132;6.574;2022-12-10T09:56:33;-0.70;99.90
57753;DHT22;43583;53.132;6.574;2022-12-10T09:59:03;-0.70;99.90
57753;DHT22;43583;53.132;6.574;2022-12-10T10:01:35;-0.70;99.90
57753;DHT22;43583;53.132;6.574;2022-12-10T10:04:03;-0.60;99.90
57753;DHT22;43583;53.132;6.574;2022-12-10T10:06:29;-0.60;99.90
57753;DHT22;43583;53.132;6.574;2022-12-10T10:08:58;-0.70;99.90
57753;DHT22;43583;53.132;6.574;2022-12-10T10:11:28;-0.60;99.90
57753;DHT22;43583;53.132;6.574;2022-12-10T10:14:04;-0.60;99.90
57753;DHT22;43583;53.132;6.574;2022-12-10T10:16:45;-0.60;99.90
57753;DHT22;43583;53.132;6.574;2022-12-10T10:19:18;-0.50;99.90
57753;DHT22;43583;53.132;6.574;2022-12-10T10:21:49;-0.50;99.90
57753;DHT22;43583;53.132;6.574;2022-12-10T10:24:25;-0.50;99.90
57753;DHT22;43583;53.132;6.574;2022-12-10T10:26:56;-0.50;99.90
57753;DHT22;43583;53.132;6.574;2022-12-10T10:29:22;-0.50;99.90
57753;DHT22;43583;53.132;6.574;2022-12-10T10:32:15;-0.50;99.90
57753;DHT22;43583;53.132;6.574;2022-12-10T10:34:42;-0.40;99.90
57753;DHT22;43583;53.132;6.574;2022-12-10T10:37:15;-0.40;99.90
57753;DHT22;43583;53.132;6.574;2022-12-10T10:39:47;-0.40;99.90
57753;DHT22;43583;53.132;6.574;2022-12-10T10:42:22;-0.40;99.90
57753;DHT22;43583;53.132;6.574;2022-12-10T10:44:50;-0.40;99.90
57753;DHT22;43583;53.132;6.574;2022-12-10T10:47:31;-0.40;99.90
57753;DHT22;43583;53.132;6.574;2022-12-10T10:49:57;-0.40;99.90
57753;DHT22;43583;53.132;6.574;2022-12-10T10:52:28;-0.40;99.90
57753;DHT22;43583;53.132;6.574;2022-12-10T10:54:54;-0.40;99.90
57753;DHT22;43583;53.132;6.574;2022-12-10T10:57:32;-0.40;99.90
57753;DHT22;43583;53.132;6.574;2022-12-10T11:00:22;-0.40;99.90
57753;DHT22;43583;53.132;6.574;2022-12-10T11:02:50;-0.30;99.90
57753;DHT22;43583;53.132;6.574;2022-12-10T11:05:30;-0.40;99.90
57753;DHT22;43583;53.132;6.574;2022-12-10T11:08:17;-0.30;99.90
57753;DHT22;43583;53.132;6.574;2022-12-10T11:10:52;-0.30;99.90
57753;DHT22;43583;53.132;6.574;2022-12-10T11:13:25;-0.30;99.90
57753;DHT22;43583;53.132;6.574;2022-12-10T11:16:40;-0.30;99.90
57753;DHT22;43583;53.132;6.574;2022-12-10T11:18:58;-0.30;99.90
57753;DHT22;43583;53.132;6.574;2022-12-10T11:21:28;-0.30;99.90
57753;DHT22;43583;53.132;6.574;2022-12-10T11:23:55;-0.20;99.90
57753;DHT22;43583;53.132;6.574;2022-12-10T11:26:52;-0.20;99.90
57753;DHT22;43583;53.132;6.574;2022-12-10T11:29:38;-0.20;99.90
57753;DHT22;43583;53.132;6.574;2022-12-10T11:40:14;0.00;99.90
57753;DHT22;43583;53.132;6.574;2022-12-10T11:45:22;0.10;99.90
57753;DHT22;43583;53.132;6.574;2022-12-10T11:51:00;0.20;99.90
57753;DHT22;43583;53.132;6.574;2022-12-10T11:53:55;0.20;99.90
57753;DHT22;43583;53.132;6.574;2022-12-10T11:56:26;0.30;99.90
57753;DHT22;43583;53.132;6.574;2022-12-10T12:02:02;0.40;99.90
57753;DHT22;43583;53.132;6.574;2022-12-10T12:05:00;0.40;99.90
57753;DHT22;43583;53.132;6.574;2022-12-10T12:11:01;0.50;99.90
57753;DHT22;43583;53.132;6.574;2022-12-10T12:16:03;0.50;99.90
57753;DHT22;43583;53.132;6.574;2022-12-10T12:18:58;0.50;99.90
57753;DHT22;43583;53.132;6.574;2022-12-10T12:21:25;0.50;99.90
57753;DHT22;43583;53.132;6.574;2022-12-10T12:24:04;0.50;99.90
57753;DHT22;43583;53.132;6.574;2022-12-10T12:26:37;0.50;99.90
57753;DHT22;43583;53.132;6.574;2022-12-10T12:31:45;0.40;99.90
57753;DHT22;43583;53.132;6.574;2022-12-10T12:34:51;0.40;99.90
57753;DHT22;43583;53.132;6.574;2022-12-10T12:37:21;0.40;99.90
57753;DHT22;43583;53.132;6.574;2022-12-10T12:42:44;0.40;99.90
57753;DHT22;43583;53.132;6.574;2022-12-10T12:45:21;0.40;99.90
57753;DHT22;43583;53.132;6.574;2022-12-10T12:48:14;0.30;99.90
57753;DHT22;43583;53.132;6.574;2022-12-10T12:50:54;0.40;99.90
57753;DHT22;43583;53.132;6.574;2022-12-10T12:53:22;0.40;99.90
57753;DHT22;43583;53.132;6.574;2022-12-10T12:55:59;0.40;99.90
57753;DHT22;43583;53.132;6.574;2022-12-10T12:58:40;0.30;99.90
57753;DHT22;43583;53.132;6.574;2022-12-10T13:01:31;0.30;99.90
57753;DHT22;43583;53.132;6.574;2022-12-10T13:03:58;0.30;99.90
57753;DHT22;43583;53.132;6.574;2022-12-10T13:06:29;0.30;99.90
57753;DHT22;43583;53.132;6.574;2022-12-10T13:09:22;0.30;99.90
57753;DHT22;43583;53.132;6.574;2022-12-10T13:14:35;0.30;99.90
57753;DHT22;43583;53.132;6.574;2022-12-10T13:19:49;0.20;99.90
57753;DHT22;43583;53.132;6.574;2022-12-10T13:25:16;0.20;99.90
57753;DHT22;43583;53.132;6.574;2022-12-10T13:27:56;0.20;99.90
57753;DHT22;43583;53.132;6.574;2022-12-10T13:30:30;0.20;99.90
57753;DHT22;43583;53.132;6.574;2022-12-10T13:33:25;0.20;99.90
57753;DHT22;43583;53.132;6.574;2022-12-10T13:36:09;0.20;99.90
57753;DHT22;43583;53.132;6.574;2022-12-10T13:38:41;0.20;99.90
57753;DHT22;43583;53.132;6.574;2022-12-10T13:41:07;0.20;99.90
57753;DHT22;43583;53.132;6.574;2022-12-10T13:43:56;0.20;99.90
57753;DHT22;43583;53.132;6.574;2022-12-10T13:49:23;0.20;99.90
57753;DHT22;43583;53.132;6.574;2022-12-10T13:52:02;0.20;99.90
57753;DHT22;43583;53.132;6.574;2022-12-10T14:02:37;0.20;99.90
57753;DHT22;43583;53.132;6.574;2022-12-10T14:07:56;0.20;99.90
57753;DHT22;43583;53.132;6.574;2022-12-10T14:10:29;0.20;99.90
57753;DHT22;43583;53.132;6.574;2022-12-10T14:12:55;0.20;99.90
57753;DHT22;43583;53.132;6.574;2022-12-10T14:15:23;0.20;99.90
57753;DHT22;43583;53.132;6.574;2022-12-10T14:17:51;0.20;99.90
57753;DHT22;43583;53.132;6.574;2022-12-10T14:20:22;0.20;99.90
57753;DHT22;43583;53.132;6.574;2022-12-10T14:22:54;0.20;99.90
57753;DHT22;43583;53.132;6.574;2022-12-10T14:25:44;0.20;99.90
57753;DHT22;43583;53.132;6.574;2022-12-10T14:28:15;0.20;99.90
57753;DHT22;43583;53.132;6.574;2022-12-10T14:30:46;0.10;99.90
57753;DHT22;43583;53.132;6.574;2022-12-10T14:33:16;0.10;99.90
57753;DHT22;43583;53.132;6.574;2022-12-10T14:35:43;0.10;99.90
57753;DHT22;43583;53.132;6.574;2022-12-10T14:38:18;0.10;99.90
57753;DHT22;43583;53.132;6.574;2022-12-10T14:40:44;0.10;99.90
57753;DHT22;43583;53.132;6.574;2022-12-10T14:43:16;0.10;99.90
57753;DHT22;43583;53.132;6.574;2022-12-10T14:45:49;0.10;99.90
57753;DHT22;43583;53.132;6.574;2022-12-10T14:48:17;0.10;99.90
57753;DHT22;43583;53.132;6.574;2022-12-10T14:50:45;0.10;99.90
57753;DHT22;43583;53.132;6.574;2022-12-10T14:53:15;0.10;99.90
57753;DHT22;43583;53.132;6.574;2022-12-10T14:55:43;0.10;99.90
57753;DHT22;43583;53.132;6.574;2022-12-10T14:58:18;0.10;99.90
57753;DHT22;43583;53.132;6.574;2022-12-10T15:00:47;0.10;99.90
57753;DHT22;43583;53.132;6.574;2022-12-10T15:03:26;0.10;99.90
57753;DHT22;43583;53.132;6.574;2022-12-10T15:05:58;0.10;99.90
57753;DHT22;43583;53.132;6.574;2022-12-10T15:08:25;0.10;99.90
57753;DHT22;43583;53.132;6.574;2022-12-10T15:10:55;0.10;99.90
57753;DHT22;43583;53.132;6.574;2022-12-10T15:13:32;0.10;99.90
57753;DHT22;43583;53.132;6.574;2022-12-10T15:15:59;0.10;99.90
57753;DHT22;43583;53.132;6.574;2022-12-10T15:18:41;0.10;99.90
57753;DHT22;43583;53.132;6.574;2022-12-10T15:21:14;0.10;99.90
57753;DHT22;43583;53.132;6.574;2022-12-10T15:23:42;0.10;99.90
57753;DHT22;43583;53.132;6.574;2022-12-10T15:28:43;0.00;99.90
57753;DHT22;43583;53.132;6.574;2022-12-10T15:34:07;0.00;99.90
57753;DHT22;43583;53.132;6.574;2022-12-10T15:36:34;0.00;99.90
57753;DHT22;43583;53.132;6.574;2022-12-10T15:41:40;0.00;99.90
57753;DHT22;43583;53.132;6.574;2022-12-10T15:44:19;0.00;99.90
57753;DHT22;43583;53.132;6.574;2022-12-10T15:46:58;0.00;99.90
57753;DHT22;43583;53.132;6.574;2022-12-10T15:49:24;0.00;99.90
57753;DHT22;43583;53.132;6.574;2022-12-10T15:51:50;0.00;99.90
57753;DHT22;43583;53.132;6.574;2022-12-10T15:54:21;0.00;99.90
57753;DHT22;43583;53.132;6.574;2022-12-10T15:56:47;0.00;99.90
57753;DHT22;43583;53.132;6.574;2022-12-10T15:59:13;0.00;99.90
57753;DHT22;43583;53.132;6.574;2022-12-10T16:01:39;0.00;99.90
57753;DHT22;43583;53.132;6.574;2022-12-10T16:04:05;0.00;99.90
57753;DHT22;43583;53.132;6.574;2022-12-10T16:06:30;0.00;99.90
57753;DHT22;43583;53.132;6.574;2022-12-10T16:08:56;0.00;99.90
57753;DHT22;43583;53.132;6.574;2022-12-10T16:11:21;0.00;99.90
57753;DHT22;43583;53.132;6.574;2022-12-10T16:13:51;0.00;99.90
57753;DHT22;43583;53.132;6.574;2022-12-10T16:16:17;0.00;99.90
57753;DHT22;43583;53.132;6.574;2022-12-10T16:18:43;0.00;99.90
57753;DHT22;43583;53.132;6.574;2022-12-10T16:21:09;0.00;99.90
57753;DHT22;43583;53.132;6.574;2022-12-10T16:23:35;0.00;99.90
57753;DHT22;43583;53.132;6.574;2022-12-10T16:26:01;0.10;99.90
57753;DHT22;43583;53.132;6.574;2022-12-10T16:28:27;0.00;99.90
57753;DHT22;43583;53.132;6.574;2022-12-10T16:30:55;0.10;99.90
57753;DHT22;43583;53.132;6.574;2022-12-10T16:33:23;0.10;99.90
57753;DHT22;43583;53.132;6.574;2022-12-10T16:35:50;0.10;99.90
57753;DHT22;43583;53.132;6.574;2022-12-10T16:38:17;0.10;99.90
57753;DHT22;43583;53.132;6.574;2022-12-10T16:40:43;0.10;99.90
57753;DHT22;43583;53.132;6.574;2022-12-10T16:43:16;0.00;99.90
57753;DHT22;43583;53.132;6.574;2022-12-10T16:45:42;0.10;99.90
57753;DHT22;43583;53.132;6.574;2022-12-10T16:48:08;0.10;99.90
57753;DHT22;43583;53.132;6.574;2022-12-10T16:50:33;0.10;99.90
57753;DHT22;43583;53.132;6.574;2022-12-10T16:53:09;0.10;99.90
57753;DHT22;43583;53.132;6.574;2022-12-10T16:55:36;0.10;99.90
57753;DHT22;43583;53.132;6.574;2022-12-10T16:58:02;0.10;99.90
57753;DHT22;43583;53.132;6.574;2022-12-10T17:00:27;0.10;99.90
57753;DHT22;43583;53.132;6.574;2022-12-10T17:02:53;0.00;99.90
57753;DHT22;43583;53.132;6.574;2022-12-10T17:05:35;0.00;99.90
57753;DHT22;43583;53.132;6.574;2022-12-10T17:08:02;0.00;99.90
57753;DHT22;43583;53.132;6.574;2022-12-10T17:10:27;0.00;99.90